createdAt,value
2022-12-25T00:00:40.157Z,0.00
2022-12-25T00:01:40.251Z,0.00
2022-12-25T00:02:45.534Z,0.00
2022-12-25T00:03:39.832Z,0.00
2022-12-25T00:04:40.964Z,0.00
2022-12-25T00:05:41.214Z,0.00
2022-12-25T00:06:41.345Z,0.00
2022-12-25T00:07:39.601Z,0.00
2022-12-25T00:08:42.965Z,0.00
2022-12-25T00:09:42.170Z,0.00
2022-12-25T00:10:45.257Z,0.00
2022-12-25T00:11:41.457Z,0.00
2022-12-25T00:12:42.916Z,0.00
2022-12-25T00:13:41.060Z,0.00
2022-12-25T00:14:40.364Z,0.00
2022-12-25T00:15:42.510Z,0.00
2022-12-25T00:16:41.884Z,0.00
2022-12-25T00:17:39.877Z,0.00
2022-12-25T00:19:05.003Z,0.00
2022-12-25T00:19:41.346Z,0.00
2022-12-25T00:20:39.514Z,0.00
2022-12-25T00:21:43.801Z,0.00
2022-12-25T00:22:46.220Z,0.00
2022-12-25T00:23:46.426Z,0.00
2022-12-25T00:24:43.548Z,0.00
2022-12-25T00:25:40.669Z,0.00
2022-12-25T00:26:42.901Z,0.00
2022-12-25T00:27:43.156Z,0.00
2022-12-25T00:28:41.302Z,0.00
2022-12-25T00:29:41.496Z,0.00
2022-12-25T00:30:39.900Z,0.00
2022-12-25T00:31:42.087Z,0.00
2022-12-25T00:32:40.320Z,0.00
2022-12-25T00:33:39.489Z,0.00
2022-12-25T00:34:40.861Z,0.00
2022-12-25T00:35:44.081Z,0.00
2022-12-25T00:36:41.938Z,0.00
2022-12-25T00:37:43.455Z,0.00
2022-12-25T00:38:40.598Z,0.00
2022-12-25T00:39:39.898Z,0.00
2022-12-25T00:40:40.136Z,0.00
2022-12-25T00:41:39.432Z,0.00
2022-12-25T00:42:40.600Z,0.00
2022-12-25T00:43:39.795Z,0.00
2022-12-25T00:44:40.165Z,0.00
2022-12-25T00:45:43.346Z,0.00
2022-12-25T00:46:39.495Z,0.00
2022-12-25T00:47:39.706Z,0.00
2022-12-25T00:48:40.981Z,0.00
2022-12-25T00:49:40.200Z,0.00
2022-12-25T00:50:42.511Z,0.00
2022-12-25T00:51:39.675Z,0.00
2022-12-25T00:52:41.971Z,0.00
2022-12-25T00:53:42.212Z,0.00
2022-12-25T00:54:39.370Z,0.00
2022-12-25T00:55:40.630Z,0.00
2022-12-25T00:56:39.875Z,0.00
2022-12-25T00:57:39.111Z,0.00
2022-12-25T00:58:39.300Z,0.00
2022-12-25T00:59:42.592Z,0.00
2022-12-25T01:01:09.957Z,0.00
2022-12-25T01:01:39.212Z,0.00
2022-12-25T01:03:11.600Z,0.00
2022-12-25T01:03:39.524Z,0.00
2022-12-25T01:04:38.753Z,0.00
2022-12-25T01:06:10.176Z,0.00
2022-12-25T01:06:39.272Z,0.00
2022-12-25T01:07:45.903Z,0.00
2022-12-25T01:08:38.804Z,0.00
2022-12-25T01:10:10.180Z,0.00
2022-12-25T01:10:39.262Z,0.00
2022-12-25T01:11:40.513Z,0.00
2022-12-25T01:13:09.857Z,0.00
2022-12-25T01:13:38.946Z,0.00
2022-12-25T01:14:39.165Z,0.00
2022-12-25T01:16:09.679Z,0.00
2022-12-25T01:16:38.708Z,0.00
2022-12-25T01:18:12.877Z,0.00
2022-12-25T01:18:39.188Z,0.00
2022-12-25T01:19:40.154Z,0.00
2022-12-25T01:20:54.217Z,0.00
2022-12-25T01:21:38.860Z,0.00
2022-12-25T01:23:10.300Z,0.00
2022-12-25T01:23:39.384Z,0.00
2022-12-25T01:25:06.360Z,0.00
2022-12-25T01:25:38.950Z,0.00
2022-12-25T01:26:41.200Z,0.00
2022-12-25T01:27:39.340Z,0.00
2022-12-25T01:29:05.592Z,0.00
2022-12-25T01:29:38.901Z,0.00
2022-12-25T01:31:10.328Z,0.00
2022-12-25T01:31:39.448Z,0.00
2022-12-25T01:32:38.542Z,0.00
2022-12-25T01:33:39.866Z,0.00
2022-12-25T01:34:39.044Z,0.00
2022-12-25T01:35:39.283Z,0.00
2022-12-25T01:36:38.520Z,0.00
2022-12-25T01:37:38.739Z,0.00
2022-12-25T01:38:40.041Z,0.00
2022-12-25T01:39:39.257Z,0.00
2022-12-25T01:40:39.376Z,0.00
2022-12-25T01:41:38.696Z,0.00
2022-12-25T01:42:38.941Z,0.00
2022-12-25T01:43:40.149Z,0.00
2022-12-25T01:44:38.376Z,0.00
2022-12-25T01:45:39.632Z,0.00
2022-12-25T01:46:39.009Z,0.00
2022-12-25T01:47:38.165Z,0.00
2022-12-25T01:48:38.429Z,0.00
2022-12-25T01:49:38.644Z,0.00
2022-12-25T01:50:38.906Z,0.00
2022-12-25T01:51:39.116Z,0.00
2022-12-25T01:52:38.364Z,0.00
2022-12-25T01:53:39.625Z,0.00
2022-12-25T01:54:45.033Z,0.00
2022-12-25T01:55:39.032Z,0.00
2022-12-25T01:56:46.596Z,0.00
2022-12-25T01:57:38.540Z,0.00
2022-12-25T01:58:40.890Z,0.00
2022-12-25T01:59:38.991Z,0.00
2022-12-25T02:00:38.286Z,0.00
2022-12-25T02:01:39.577Z,0.00
2022-12-25T02:02:39.996Z,0.00
2022-12-25T02:03:40.015Z,0.00
2022-12-25T02:04:38.208Z,0.00
2022-12-25T02:05:52.962Z,0.00
2022-12-25T02:06:38.700Z,0.00
2022-12-25T02:07:37.854Z,0.00
2022-12-25T02:08:40.224Z,0.00
2022-12-25T02:09:38.311Z,0.00
2022-12-25T02:10:39.624Z,0.00
2022-12-25T02:11:39.861Z,0.00
2022-12-25T02:12:38.964Z,0.00
2022-12-25T02:13:38.978Z,0.00
2022-12-25T02:14:38.202Z,0.00
2022-12-25T02:15:38.417Z,0.00
2022-12-25T02:16:58.000Z,0.00
2022-12-25T02:17:39.891Z,0.00
2022-12-25T02:18:38.093Z,0.00
2022-12-25T02:19:38.348Z,0.00
2022-12-25T02:20:38.045Z,0.00
2022-12-25T02:21:40.319Z,0.00
2022-12-25T02:23:10.737Z,0.00
2022-12-25T02:23:37.729Z,0.00
2022-12-25T02:24:37.977Z,0.00
2022-12-25T02:25:39.455Z,0.00
2022-12-25T02:26:38.430Z,0.00
2022-12-25T02:27:37.647Z,0.00
2022-12-25T02:28:37.879Z,0.00
2022-12-25T02:29:39.215Z,0.00
2022-12-25T02:30:39.419Z,0.00
2022-12-25T02:31:39.753Z,0.00
2022-12-25T02:32:38.879Z,0.00
2022-12-25T02:33:39.135Z,0.00
2022-12-25T02:35:09.517Z,0.00
2022-12-25T02:35:37.498Z,0.00
2022-12-25T02:36:37.895Z,0.00
2022-12-25T02:37:38.047Z,0.00
2022-12-25T02:38:38.195Z,0.00
2022-12-25T02:39:38.428Z,0.00
2022-12-25T02:40:37.648Z,0.00
2022-12-25T02:41:37.885Z,0.00
2022-12-25T02:42:38.140Z,0.00
2022-12-25T02:43:38.387Z,0.00
2022-12-25T02:44:37.561Z,0.00
2022-12-25T02:45:38.850Z,0.00
2022-12-25T02:46:38.039Z,0.00
2022-12-25T02:47:39.792Z,0.00
2022-12-25T02:48:38.566Z,0.00
2022-12-25T02:49:37.770Z,0.00
2022-12-25T02:50:39.056Z,0.00
2022-12-25T02:51:38.231Z,0.00
2022-12-25T02:52:37.464Z,0.00
2022-12-25T02:53:37.765Z,0.00
2022-12-25T02:54:37.975Z,0.00
2022-12-25T02:55:38.200Z,0.00
2022-12-25T02:56:38.441Z,0.00
2022-12-25T02:57:40.755Z,0.00
2022-12-25T02:58:37.900Z,0.00
2022-12-25T02:59:38.117Z,0.00
2022-12-25T03:01:05.435Z,0.00
2022-12-25T03:01:38.728Z,0.00
2022-12-25T03:02:37.747Z,0.00
2022-12-25T03:04:02.986Z,0.00
2022-12-25T03:04:37.243Z,0.00
2022-12-25T03:05:37.473Z,0.00
2022-12-25T03:06:37.714Z,0.00
2022-12-25T03:07:37.935Z,0.00
2022-12-25T03:08:37.172Z,0.00
2022-12-25T03:09:38.429Z,0.00
2022-12-25T03:10:39.668Z,0.00
2022-12-25T03:11:39.895Z,0.00
2022-12-25T03:12:40.135Z,0.00
2022-12-25T03:13:41.296Z,0.00
2022-12-25T03:14:38.526Z,0.00
2022-12-25T03:15:37.726Z,0.00
2022-12-25T03:16:37.946Z,0.00
2022-12-25T03:17:37.068Z,0.00
2022-12-25T03:18:38.341Z,0.00
2022-12-25T03:19:37.575Z,0.00
2022-12-25T03:20:39.192Z,0.00
2022-12-25T03:21:37.011Z,0.00
2022-12-25T03:22:39.784Z,0.00
2022-12-25T03:24:27.319Z,0.00
2022-12-25T03:24:37.692Z,0.00
2022-12-25T03:25:36.895Z,0.00
2022-12-25T03:27:03.372Z,0.00
2022-12-25T03:27:39.374Z,0.00
2022-12-25T03:28:37.534Z,0.00
2022-12-25T03:29:39.688Z,0.00
2022-12-25T03:30:36.815Z,0.00
2022-12-25T03:31:37.041Z,0.00
2022-12-25T03:32:44.632Z,0.00
2022-12-25T03:33:45.302Z,0.00
2022-12-25T03:34:37.732Z,0.00
2022-12-25T03:36:02.957Z,0.00
2022-12-25T03:36:37.226Z,0.00
2022-12-25T03:37:37.507Z,0.00
2022-12-25T03:38:36.826Z,0.00
2022-12-25T03:39:40.092Z,0.00
2022-12-25T03:40:38.251Z,0.00
2022-12-25T03:41:39.608Z,0.00
2022-12-25T03:42:37.737Z,0.00
2022-12-25T03:43:36.936Z,0.00
2022-12-25T03:44:37.187Z,0.00
2022-12-25T03:45:37.412Z,0.00
2022-12-25T03:46:37.767Z,0.00
2022-12-25T03:47:36.817Z,0.00
2022-12-25T03:48:38.020Z,0.00
2022-12-25T03:49:37.393Z,0.00
2022-12-25T03:50:37.533Z,0.00
2022-12-25T03:51:36.765Z,0.00
2022-12-25T03:52:36.997Z,0.00
2022-12-25T03:53:37.235Z,0.00
2022-12-25T03:54:37.552Z,0.00
2022-12-25T03:55:36.677Z,0.00
2022-12-25T03:56:36.917Z,0.00
2022-12-25T03:57:38.177Z,0.00
2022-12-25T03:58:37.341Z,0.00
2022-12-25T03:59:36.543Z,0.00
2022-12-25T04:00:36.877Z,0.00
2022-12-25T04:02:16.537Z,0.00
2022-12-25T04:02:37.485Z,0.00
2022-12-25T04:03:36.487Z,0.00
2022-12-25T04:05:16.138Z,0.00
2022-12-25T04:05:36.916Z,0.00
2022-12-25T04:06:37.144Z,0.00
2022-12-25T04:07:37.382Z,0.00
2022-12-25T04:09:02.555Z,0.00
2022-12-25T04:09:36.792Z,0.00
2022-12-25T04:10:43.283Z,0.00
2022-12-25T04:11:36.217Z,0.00
2022-12-25T04:12:37.494Z,0.00
2022-12-25T04:13:36.706Z,0.00
2022-12-25T04:14:39.012Z,0.00
2022-12-25T04:15:37.303Z,0.00
2022-12-25T04:16:36.702Z,0.00
2022-12-25T04:17:37.679Z,0.00
2022-12-25T04:18:36.893Z,0.00
2022-12-25T04:20:16.642Z,0.00
2022-12-25T04:20:36.430Z,0.00
2022-12-25T04:21:36.722Z,0.00
2022-12-25T04:23:11.187Z,0.00
2022-12-25T04:23:36.104Z,0.00
2022-12-25T04:24:36.348Z,0.00
2022-12-25T04:25:36.623Z,0.00
2022-12-25T04:26:36.876Z,0.00
2022-12-25T04:27:37.392Z,0.00
2022-12-25T04:28:36.343Z,0.00
2022-12-25T04:29:36.569Z,0.00
2022-12-25T04:30:43.045Z,0.00
2022-12-25T04:31:43.350Z,0.00
2022-12-25T04:33:02.258Z,0.00
2022-12-25T04:33:36.455Z,0.00
2022-12-25T04:34:37.812Z,0.00
2022-12-25T04:35:36.024Z,0.00
2022-12-25T04:36:36.227Z,0.00
2022-12-25T04:37:42.699Z,0.00
2022-12-25T04:38:37.726Z,0.00
2022-12-25T04:39:36.848Z,0.00
2022-12-25T04:40:36.076Z,0.00
2022-12-25T04:41:36.304Z,0.00
2022-12-25T04:42:36.526Z,0.00
2022-12-25T04:43:36.773Z,0.00
2022-12-25T04:44:37.053Z,0.00
2022-12-25T04:45:36.202Z,0.00
2022-12-25T04:46:36.504Z,0.00
2022-12-25T04:47:36.702Z,0.00
2022-12-25T04:48:35.865Z,0.00
2022-12-25T04:49:36.128Z,0.00
2022-12-25T04:50:36.439Z,0.00
2022-12-25T04:51:36.590Z,0.00
2022-12-25T04:52:35.768Z,0.00
2022-12-25T04:53:40.116Z,0.00
2022-12-25T04:54:36.268Z,0.00
2022-12-25T04:55:36.529Z,0.00
2022-12-25T04:56:45.262Z,0.00
2022-12-25T04:57:36.978Z,0.00
2022-12-25T04:58:43.543Z,0.00
2022-12-25T04:59:37.505Z,0.00
2022-12-25T05:00:36.708Z,0.00
2022-12-25T05:01:37.084Z,0.00
2022-12-25T05:02:37.522Z,0.00
2022-12-25T05:03:36.401Z,0.00
2022-12-25T05:04:35.544Z,0.00
2022-12-25T05:05:36.778Z,0.00
2022-12-25T05:06:38.109Z,0.00
2022-12-25T05:07:36.260Z,0.00
2022-12-25T05:08:36.445Z,0.00
2022-12-25T05:09:35.627Z,0.00
2022-12-25T05:10:36.920Z,0.00
2022-12-25T05:11:38.280Z,0.00
2022-12-25T05:12:50.908Z,0.00
2022-12-25T05:13:35.578Z,0.00
2022-12-25T05:14:35.782Z,0.00
2022-12-25T05:15:36.058Z,0.00
2022-12-25T05:16:36.428Z,0.00
2022-12-25T05:17:35.577Z,0.00
2022-12-25T05:18:35.669Z,0.00
2022-12-25T05:19:35.929Z,0.00
2022-12-25T05:20:39.977Z,0.00
2022-12-25T05:21:36.487Z,0.00
2022-12-25T05:22:37.013Z,0.00
2022-12-25T05:23:35.837Z,0.00
2022-12-25T05:24:36.075Z,0.00
2022-12-25T05:25:35.247Z,0.00
2022-12-25T05:26:50.028Z,0.00
2022-12-25T05:27:35.712Z,0.00
2022-12-25T05:28:36.278Z,0.00
2022-12-25T05:29:50.698Z,0.00
2022-12-25T05:30:37.451Z,0.00
2022-12-25T05:31:35.673Z,0.00
2022-12-25T05:32:50.351Z,0.00
2022-12-25T05:33:36.026Z,0.00
2022-12-25T05:34:35.229Z,0.00
2022-12-25T05:35:49.954Z,0.00
2022-12-25T05:36:36.720Z,0.00
2022-12-25T05:37:36.930Z,0.00
2022-12-25T05:38:37.150Z,0.00
2022-12-25T05:39:35.321Z,0.00
2022-12-25T05:40:35.557Z,0.00
2022-12-25T05:41:35.765Z,0.00
2022-12-25T05:42:35.975Z,0.00
2022-12-25T05:43:35.173Z,0.00
2022-12-25T05:44:35.462Z,0.00
2022-12-25T05:45:35.680Z,0.00
2022-12-25T05:46:35.940Z,0.00
2022-12-25T05:47:35.128Z,0.00
2022-12-25T05:48:49.868Z,0.00
2022-12-25T05:49:35.585Z,0.00
2022-12-25T05:50:35.814Z,0.00
2022-12-25T05:51:36.013Z,0.00
2022-12-25T05:52:35.184Z,0.00
2022-12-25T05:53:35.454Z,0.00
2022-12-25T05:54:35.672Z,0.00
2022-12-25T05:55:35.955Z,0.00
2022-12-25T05:56:35.014Z,0.00
2022-12-25T05:57:35.262Z,0.00
2022-12-25T05:58:36.448Z,0.00
2022-12-25T05:59:35.744Z,0.00
2022-12-25T06:00:35.942Z,0.00
2022-12-25T06:01:35.290Z,0.00
2022-12-25T06:02:35.525Z,0.00
2022-12-25T06:03:35.620Z,0.00
2022-12-25T06:04:35.772Z,0.00
2022-12-25T06:05:34.997Z,0.00
2022-12-25T06:06:35.193Z,0.00
2022-12-25T06:07:35.547Z,0.00
2022-12-25T06:08:35.623Z,0.00
2022-12-25T06:09:34.847Z,0.00
2022-12-25T06:10:34.882Z,0.00
2022-12-25T06:11:35.141Z,0.00
2022-12-25T06:12:35.352Z,0.00
2022-12-25T06:13:35.621Z,0.00
2022-12-25T06:14:36.753Z,0.00
2022-12-25T06:15:35.002Z,0.00
2022-12-25T06:16:38.264Z,0.00
2022-12-25T06:17:40.176Z,0.00
2022-12-25T06:18:34.693Z,0.00
2022-12-25T06:19:35.088Z,0.00
2022-12-25T06:20:35.147Z,0.00
2022-12-25T06:21:35.382Z,0.00
2022-12-25T06:22:34.551Z,0.00
2022-12-25T06:23:35.814Z,0.00
2022-12-25T06:24:36.084Z,0.00
2022-12-25T06:25:35.227Z,0.00
2022-12-25T06:26:35.482Z,0.00
2022-12-25T06:27:34.672Z,0.00
2022-12-25T06:28:34.902Z,0.00
2022-12-25T06:29:35.148Z,0.00
2022-12-25T06:30:35.491Z,0.00
2022-12-25T06:31:34.673Z,0.00
2022-12-25T06:32:34.818Z,0.00
2022-12-25T06:33:35.059Z,0.00
2022-12-25T06:34:36.450Z,0.00
2022-12-25T06:35:35.580Z,0.00
2022-12-25T06:36:34.720Z,0.00
2022-12-25T06:37:35.908Z,0.00
2022-12-25T06:38:35.234Z,0.00
2022-12-25T06:39:34.458Z,0.00
2022-12-25T06:40:34.631Z,0.00
2022-12-25T06:41:34.917Z,0.00
2022-12-25T06:42:49.677Z,0.00
2022-12-25T06:43:35.427Z,0.00
2022-12-25T06:44:34.584Z,0.00
2022-12-25T06:45:49.453Z,0.00
2022-12-25T06:46:50.505Z,0.00
2022-12-25T06:47:35.318Z,0.00
2022-12-25T06:48:34.596Z,0.00
2022-12-25T06:49:36.832Z,0.00
2022-12-25T06:50:34.988Z,0.00
2022-12-25T06:51:36.197Z,0.00
2022-12-25T06:52:34.540Z,0.00
2022-12-25T06:53:40.135Z,0.00
2022-12-25T06:54:34.943Z,0.00
2022-12-25T06:55:34.131Z,0.00
2022-12-25T06:56:36.318Z,0.00
2022-12-25T06:57:36.714Z,0.00
2022-12-25T06:58:34.812Z,0.00
2022-12-25T06:59:35.010Z,0.00
2022-12-25T07:00:34.210Z,0.00
2022-12-25T07:01:34.628Z,0.00
2022-12-25T07:02:34.882Z,0.00
2022-12-25T07:03:34.942Z,0.00
2022-12-25T07:04:35.463Z,0.00
2022-12-25T07:05:34.342Z,0.00
2022-12-25T07:06:34.701Z,0.00
2022-12-25T07:07:34.883Z,0.00
2022-12-25T07:08:34.001Z,0.00
2022-12-25T07:09:34.258Z,0.00
2022-12-25T07:10:35.458Z,0.00
2022-12-25T07:11:35.574Z,0.00
2022-12-25T07:12:33.931Z,0.00
2022-12-25T07:13:34.175Z,0.00
2022-12-25T07:14:35.628Z,0.00
2022-12-25T07:15:34.700Z,0.00
2022-12-25T07:16:34.016Z,0.00
2022-12-25T07:17:34.166Z,0.00
2022-12-25T07:18:35.500Z,0.00
2022-12-25T07:19:38.229Z,0.00
2022-12-25T07:20:34.916Z,0.00
2022-12-25T07:21:36.131Z,0.00
2022-12-25T07:22:41.656Z,0.00
2022-12-25T07:23:49.211Z,0.00
2022-12-25T07:24:34.909Z,0.00
2022-12-25T07:25:37.452Z,0.00
2022-12-25T07:26:34.393Z,0.00
2022-12-25T07:27:33.593Z,0.00
2022-12-25T07:28:48.436Z,0.00
2022-12-25T07:29:35.185Z,0.00
2022-12-25T07:30:34.411Z,0.00
2022-12-25T07:31:35.001Z,0.00
2022-12-25T07:32:33.911Z,0.00
2022-12-25T07:33:37.238Z,0.00
2022-12-25T07:34:35.392Z,0.00
2022-12-25T07:35:34.596Z,0.00
2022-12-25T07:36:34.853Z,0.00
2022-12-25T07:37:35.139Z,0.00
2022-12-25T07:38:35.281Z,0.00
2022-12-25T07:39:34.506Z,0.00
2022-12-25T07:40:33.659Z,0.00
2022-12-25T07:41:33.901Z,0.00
2022-12-25T07:42:35.155Z,0.00
2022-12-25T07:43:34.335Z,0.00
2022-12-25T07:44:34.576Z,0.00
2022-12-25T07:45:33.812Z,0.00
2022-12-25T07:46:59.903Z,0.00
2022-12-25T07:47:34.180Z,0.00
2022-12-25T07:48:34.451Z,0.00
2022-12-25T07:49:34.616Z,0.00
2022-12-25T07:50:33.818Z,0.00
2022-12-25T07:51:34.018Z,0.00
2022-12-25T07:52:39.506Z,0.00
2022-12-25T07:53:34.408Z,0.00
2022-12-25T07:54:34.025Z,0.00
2022-12-25T07:55:34.885Z,0.00
2022-12-25T07:56:34.075Z,0.00
2022-12-25T07:57:35.243Z,0.00
2022-12-25T07:58:33.470Z,0.00
2022-12-25T07:59:33.688Z,0.00
2022-12-25T08:00:34.061Z,0.00
2022-12-25T08:01:34.283Z,0.00
2022-12-25T08:02:33.736Z,0.00
2022-12-25T08:03:34.861Z,0.00
2022-12-25T08:04:33.746Z,0.00
2022-12-25T08:05:33.966Z,0.00
2022-12-25T08:06:33.185Z,0.00
2022-12-25T08:07:36.488Z,0.00
2022-12-25T08:08:33.587Z,5.62
2022-12-25T08:09:34.847Z,5.62
2022-12-25T08:10:35.001Z,5.62
2022-12-25T08:11:33.223Z,5.62
2022-12-25T08:12:33.448Z,5.62
2022-12-25T08:13:33.640Z,5.62
2022-12-25T08:14:33.864Z,5.62
2022-12-25T08:15:34.100Z,5.62
2022-12-25T08:16:34.483Z,5.62
2022-12-25T08:17:36.608Z,5.62
2022-12-25T08:18:33.717Z,5.62
2022-12-25T08:19:35.995Z,5.62
2022-12-25T08:20:36.217Z,11.25
2022-12-25T08:21:36.586Z,11.25
2022-12-25T08:22:36.645Z,11.25
2022-12-25T08:23:36.867Z,11.25
2022-12-25T08:24:59.872Z,11.25
2022-12-25T08:25:33.103Z,11.25
2022-12-25T08:26:33.347Z,11.25
2022-12-25T08:27:48.127Z,11.25
2022-12-25T08:28:33.759Z,5.62
2022-12-25T08:29:32.925Z,5.62
2022-12-25T08:30:36.300Z,5.62
2022-12-25T08:31:34.760Z,5.62
2022-12-25T08:32:35.703Z,5.62
2022-12-25T08:33:32.911Z,5.62
2022-12-25T08:34:34.381Z,5.62
2022-12-25T08:35:34.321Z,5.62
2022-12-25T08:36:34.546Z,5.62
2022-12-25T08:37:33.727Z,5.62
2022-12-25T08:38:35.228Z,5.62
2022-12-25T08:39:47.632Z,5.62
2022-12-25T08:40:47.861Z,5.62
2022-12-25T08:41:33.591Z,5.62
2022-12-25T08:42:32.700Z,5.62
2022-12-25T08:43:33.959Z,5.62
2022-12-25T08:44:35.351Z,5.62
2022-12-25T08:45:59.364Z,5.62
2022-12-25T08:46:32.599Z,11.25
2022-12-25T08:47:35.901Z,11.25
2022-12-25T08:48:32.995Z,11.25
2022-12-25T08:49:58.176Z,11.25
2022-12-25T08:50:33.421Z,11.25
2022-12-25T08:51:33.656Z,11.25
2022-12-25T08:52:34.894Z,11.25
2022-12-25T08:53:58.992Z,11.25
2022-12-25T08:54:33.246Z,11.25
2022-12-25T08:55:33.847Z,5.62
2022-12-25T08:56:32.669Z,5.62
2022-12-25T08:57:33.947Z,5.62
2022-12-25T08:58:58.029Z,5.62
2022-12-25T08:59:33.314Z,5.62
2022-12-25T09:00:33.528Z,5.62
2022-12-25T09:01:32.806Z,5.62
2022-12-25T09:02:36.340Z,5.62
2022-12-25T09:03:35.353Z,5.62
2022-12-25T09:04:32.408Z,5.62
2022-12-25T09:05:33.529Z,5.62
2022-12-25T09:06:32.796Z,5.62
2022-12-25T09:07:32.988Z,5.62
2022-12-25T09:08:33.207Z,5.62
2022-12-25T09:09:32.418Z,5.62
2022-12-25T09:10:35.711Z,5.62
2022-12-25T09:11:32.880Z,5.62
2022-12-25T09:12:35.156Z,5.62
2022-12-25T09:13:34.331Z,5.62
2022-12-25T09:14:32.488Z,5.62
2022-12-25T09:15:58.674Z,5.62
2022-12-25T09:16:32.944Z,5.62
2022-12-25T09:17:32.081Z,11.25
2022-12-25T09:18:32.333Z,11.25
2022-12-25T09:19:32.526Z,11.25
2022-12-25T09:20:32.736Z,11.25
2022-12-25T09:21:35.073Z,16.88
2022-12-25T09:23:11.626Z,16.88
2022-12-25T09:23:33.522Z,16.88
2022-12-25T09:24:32.596Z,16.88
2022-12-25T09:25:39.083Z,16.88
2022-12-25T09:26:32.006Z,16.88
2022-12-25T09:27:32.256Z,16.88
2022-12-25T09:29:08.262Z,22.50
2022-12-25T09:29:32.666Z,22.50
2022-12-25T09:30:32.925Z,22.50
2022-12-25T09:31:47.632Z,22.50
2022-12-25T09:32:32.261Z,28.12
2022-12-25T09:33:32.476Z,28.12
2022-12-25T09:35:00.180Z,28.12
2022-12-25T09:35:31.866Z,33.75
2022-12-25T09:36:32.076Z,33.75
2022-12-25T09:37:32.313Z,39.38
2022-12-25T09:38:32.521Z,39.38
2022-12-25T09:39:35.750Z,39.38
2022-12-25T09:40:43.738Z,39.38
2022-12-25T09:41:41.494Z,33.75
2022-12-25T09:42:46.854Z,28.12
2022-12-25T09:43:32.540Z,28.12
2022-12-25T09:44:32.795Z,22.50
2022-12-25T09:45:32.962Z,22.50
2022-12-25T09:46:37.086Z,22.50
2022-12-25T09:47:33.332Z,22.50
2022-12-25T09:48:34.672Z,22.50
2022-12-25T09:49:31.741Z,16.88
2022-12-25T09:50:39.136Z,16.88
2022-12-25T09:51:35.383Z,16.88
2022-12-25T09:52:33.100Z,16.88
2022-12-25T09:54:12.167Z,22.50
2022-12-25T09:54:31.912Z,22.50
2022-12-25T09:55:32.000Z,22.50
2022-12-25T09:56:32.256Z,22.50
2022-12-25T09:57:39.021Z,22.50
2022-12-25T09:58:32.803Z,22.50
2022-12-25T09:59:32.936Z,22.50
2022-12-25T10:00:32.098Z,22.50
2022-12-25T10:01:32.432Z,22.50
2022-12-25T10:02:32.820Z,22.50
2022-12-25T10:03:33.954Z,16.88
2022-12-25T10:04:47.601Z,16.88
2022-12-25T10:05:33.319Z,16.88
2022-12-25T10:06:33.567Z,16.88
2022-12-25T10:07:31.715Z,11.25
2022-12-25T10:08:32.923Z,11.25
2022-12-25T10:09:32.272Z,11.25
2022-12-25T10:10:34.468Z,11.25
2022-12-25T10:11:33.665Z,11.25
2022-12-25T10:12:31.772Z,11.25
2022-12-25T10:13:39.357Z,11.25
2022-12-25T10:14:33.335Z,11.25
2022-12-25T10:15:33.532Z,11.25
2022-12-25T10:16:31.756Z,11.25
2022-12-25T10:17:31.862Z,11.25
2022-12-25T10:18:32.074Z,11.25
2022-12-25T10:19:38.596Z,11.25
2022-12-25T10:20:32.543Z,11.25
2022-12-25T10:21:33.903Z,11.25
2022-12-25T10:22:31.988Z,11.25
2022-12-25T10:23:32.282Z,16.88
2022-12-25T10:24:31.431Z,16.88
2022-12-25T10:25:32.927Z,16.88
2022-12-25T10:26:31.862Z,16.88
2022-12-25T10:27:33.063Z,16.88
2022-12-25T10:28:32.385Z,16.88
2022-12-25T10:29:33.590Z,16.88
2022-12-25T10:30:31.749Z,16.88
2022-12-25T10:31:32.247Z,16.88
2022-12-25T10:32:31.151Z,16.88
2022-12-25T10:33:31.400Z,16.88
2022-12-25T10:34:31.638Z,16.88
2022-12-25T10:35:31.829Z,16.88
2022-12-25T10:36:31.265Z,11.25
2022-12-25T10:37:31.450Z,11.25
2022-12-25T10:38:33.614Z,11.25
2022-12-25T10:39:33.817Z,11.25
2022-12-25T10:40:32.033Z,11.25
2022-12-25T10:41:32.215Z,11.25
2022-12-25T10:42:33.801Z,11.25
2022-12-25T10:43:32.697Z,11.25
2022-12-25T10:44:32.869Z,11.25
2022-12-25T10:45:32.068Z,11.25
2022-12-25T10:46:31.305Z,16.88
2022-12-25T10:47:32.512Z,16.88
2022-12-25T10:48:56.641Z,16.88
2022-12-25T10:49:30.838Z,16.88
2022-12-25T10:50:32.110Z,16.88
2022-12-25T10:51:31.263Z,16.88
2022-12-25T10:52:32.537Z,16.88
2022-12-25T10:53:31.726Z,16.88
2022-12-25T10:54:30.936Z,16.88
2022-12-25T10:55:34.206Z,16.88
2022-12-25T10:56:32.328Z,11.25
2022-12-25T10:57:32.551Z,11.25
2022-12-25T10:58:31.777Z,11.25
2022-12-25T10:59:31.095Z,11.25
2022-12-25T11:00:31.389Z,11.25
2022-12-25T11:01:57.381Z,11.25
2022-12-25T11:02:31.789Z,16.88
2022-12-25T11:03:30.826Z,16.88
2022-12-25T11:04:30.937Z,16.88
2022-12-25T11:05:31.181Z,16.88
2022-12-25T11:06:31.458Z,16.88
2022-12-25T11:07:32.651Z,22.50
2022-12-25T11:08:30.817Z,22.50
2022-12-25T11:09:32.288Z,28.12
2022-12-25T11:10:31.233Z,28.12
2022-12-25T11:11:31.481Z,28.12
2022-12-25T11:12:32.727Z,33.75
2022-12-25T11:13:31.876Z,33.75
2022-12-25T11:14:31.096Z,33.75
2022-12-25T11:15:31.282Z,39.38
2022-12-25T11:16:32.865Z,39.38
2022-12-25T11:17:32.774Z,45.00
2022-12-25T11:18:30.920Z,45.00
2022-12-25T11:19:32.158Z,45.00
2022-12-25T11:20:32.340Z,50.62
2022-12-25T11:21:33.790Z,56.25
2022-12-25T11:22:32.777Z,61.88
2022-12-25T11:23:30.916Z,61.88
2022-12-25T11:24:31.175Z,61.88
2022-12-25T11:25:37.588Z,67.50
2022-12-25T11:26:30.521Z,67.50
2022-12-25T11:27:30.806Z,67.50
2022-12-25T11:28:31.981Z,73.12
2022-12-25T11:29:37.396Z,73.12
2022-12-25T11:30:32.380Z,73.12
2022-12-25T11:31:32.650Z,78.75
2022-12-25T11:32:32.910Z,78.75
2022-12-25T11:33:31.979Z,78.75
2022-12-25T11:34:31.091Z,73.12
2022-12-25T11:35:31.292Z,73.12
2022-12-25T11:36:30.474Z,67.50
2022-12-25T11:37:30.675Z,67.50
2022-12-25T11:38:33.303Z,67.50
2022-12-25T11:39:32.156Z,67.50
2022-12-25T11:40:32.302Z,67.50
2022-12-25T11:41:32.523Z,67.50
2022-12-25T11:42:46.207Z,61.88
2022-12-25T11:44:00.986Z,61.88
2022-12-25T11:44:31.041Z,61.88
2022-12-25T11:45:30.211Z,61.88
2022-12-25T11:46:30.504Z,61.88
2022-12-25T11:47:45.148Z,61.88
2022-12-25T11:48:31.908Z,61.88
2022-12-25T11:49:30.060Z,61.88
2022-12-25T11:50:32.329Z,56.25
2022-12-25T11:52:23.362Z,50.62
2022-12-25T11:52:30.664Z,50.62
2022-12-25T11:53:30.866Z,50.62
2022-12-25T11:54:32.157Z,56.25
2022-12-25T11:55:30.241Z,56.25
2022-12-25T11:57:00.641Z,56.25
2022-12-25T11:57:30.662Z,56.25
2022-12-25T11:58:31.966Z,56.25
2022-12-25T11:59:30.082Z,56.25
2022-12-25T12:00:58.384Z,56.25
2022-12-25T12:01:32.680Z,56.25
2022-12-25T12:02:30.827Z,56.25
2022-12-25T12:03:57.991Z,56.25
2022-12-25T12:04:38.521Z,61.88
2022-12-25T12:05:31.362Z,61.88
2022-12-25T12:06:36.932Z,61.88
2022-12-25T12:07:55.698Z,67.50
2022-12-25T12:08:29.962Z,67.50
2022-12-25T12:09:31.221Z,67.50
2022-12-25T12:11:02.637Z,67.50
2022-12-25T12:11:30.612Z,61.88
2022-12-25T12:12:29.931Z,61.88
2022-12-25T12:13:34.095Z,61.88
2022-12-25T12:14:31.306Z,61.88
2022-12-25T12:15:32.476Z,61.88
2022-12-25T12:16:33.778Z,61.88
2022-12-25T12:17:29.873Z,56.25
2022-12-25T12:18:56.117Z,50.62
2022-12-25T12:19:30.325Z,50.62
2022-12-25T12:20:30.568Z,45.00
2022-12-25T12:21:32.386Z,50.62
2022-12-25T12:22:29.921Z,50.62
2022-12-25T12:23:32.194Z,45.00
2022-12-25T12:24:30.388Z,45.00
2022-12-25T12:25:30.540Z,45.00
2022-12-25T12:26:29.760Z,45.00
2022-12-25T12:27:29.941Z,39.38
2022-12-25T12:28:30.171Z,39.38
2022-12-25T12:29:30.407Z,39.38
2022-12-25T12:30:36.862Z,39.38
2022-12-25T12:31:29.785Z,39.38
2022-12-25T12:32:33.106Z,39.38
2022-12-25T12:33:30.232Z,39.38
2022-12-25T12:34:30.424Z,39.38
2022-12-25T12:35:30.678Z,39.38
2022-12-25T12:36:36.206Z,39.38
2022-12-25T12:37:31.014Z,39.38
2022-12-25T12:38:30.202Z,39.38
2022-12-25T12:39:29.426Z,39.38
2022-12-25T12:40:30.589Z,39.38
2022-12-25T12:41:29.871Z,39.38
2022-12-25T12:42:31.170Z,39.38
2022-12-25T12:43:30.265Z,39.38
2022-12-25T12:45:20.354Z,45.00
2022-12-25T12:45:29.671Z,45.00
2022-12-25T12:46:58.046Z,45.00
2022-12-25T12:47:30.072Z,45.00
2022-12-25T12:48:29.227Z,45.00
2022-12-25T12:49:30.485Z,45.00
2022-12-25T12:50:29.672Z,39.38
2022-12-25T12:52:02.114Z,33.75
2022-12-25T12:52:30.044Z,33.75
2022-12-25T12:53:29.193Z,28.12
2022-12-25T12:54:57.476Z,33.75
2022-12-25T12:55:29.607Z,33.75
2022-12-25T12:56:29.893Z,33.75
2022-12-25T12:57:30.109Z,28.12
2022-12-25T12:58:29.218Z,33.75
2022-12-25T12:59:30.415Z,33.75
2022-12-25T13:00:29.586Z,28.12
2022-12-25T13:01:30.921Z,28.12
2022-12-25T13:03:03.649Z,28.12
2022-12-25T13:03:29.255Z,28.12
2022-12-25T13:04:29.389Z,28.12
2022-12-25T13:05:34.464Z,28.12
2022-12-25T13:06:30.741Z,28.12
2022-12-25T13:07:56.925Z,28.12
2022-12-25T13:08:29.165Z,28.12
2022-12-25T13:09:29.319Z,28.12
2022-12-25T13:10:29.546Z,28.12